TAF KLMT
KLMT 090555Z 0906/1006 27005KT P6SM SCT040 FM092000 30015G21KT P6SM BKN250 FM100300 30007KT P6SM BKN040=
METAR KLMT
WC KLMT
WS KLMT
WV KLMT